Polarstern — DBLK — position and weather

sailwx.info

Track history (hours):
 
Tides and Currents Weather Stations Pressure Air Temp Water Temp Dewpoint Dewpoint Depression Visibility Wind Speed Wind Dir Waves Ship Positions

Oceanographic research ship Polarstern (Germany)

Detailed information on ship capabilities available from University of Delaware's Ocean Information Center and ARCUS's ALIAS (Arctic Logistics Information and Support) project.

Last reported at 2016-Jun-25 06:00 UTC. Time now 2016-Jun-25 07:10 UTC.
Position N 78°36' E 005°06'.

Length 117.9 m; beam 25 m; draft 10.7 m.

MMSI: 211202460.

Wind from 200 at 8 knots

Barometer 1013.1 mb
Air temperature 3.0 ° C
Visibility: greater than 2.2 NM
Dewpoint 2.9 ° C
Water temperature 4.9 ° C

Date/timePositionNaut miles runAvg speedWind from/ knotsBaromVisibWave heightAir tempDewpointWater temp
2016-Jun-25 06:00N 78°36' E 005°06'0 0.0 200 / 81013.1 2.2 3.0 2.9 4.9
2016-Jun-25 05:00N 78°36' E 005°06'0 0.0 200 / 81012.7 2.8 2.6 4.9
2016-Jun-25 04:00N 78°36' E 005°06'1010.3 220 / 81012.4 3.3 2.7 4.9
2016-Jun-25 03:00N 78°30' E 005°48'10 9.6 220 / 101012.4 3.9 2.7 2.1
2016-Jun-25 02:00N 78°30' E 006°36'1010.3 220 / 81012.3 4.5 3.0 6.0
2016-Jun-25 01:00N 78°24' E 007°18'1111.4 240 / 101012.0 4.7 4.2 5.8
2016-Jun-25 00:00N 78°18' E 008°06'10 9.7 210 / 101011.8 4.9 4.8 5.6
2016-Jun-24 23:00N 78°18' E 008°54'1010.4 110 / 121011.9 4.9 4.0 6.1
2016-Jun-24 22:00N 78°12' E 009°36'1211.5 080 / 81011.8 4.2 3.3 6.0
2016-Jun-24 21:00N 78°06' E 010°24'1110.6 160 / 41011.6 5.3 4.1 6.3
2016-Jun-24 20:00N 78°00' E 011°06'1010.0 110 / 21011.5 5.0 3.6 5.0
2016-Jun-24 19:00N 78°00' E 011°54'1010.0 280 / 101010.9 5.0 4.1 4.9
2016-Jun-24 18:00N 78°00' E 012°42'1110.6 220 / 101010.4 0.5 4.9 4.9 5.2
2016-Jun-24 17:00N 78°06' E 013°24'1211.5 190 / 161010.1 4.2 4.0 3.5
2016-Jun-24 16:00N 78°12' E 014°12'10 9.8 240 / 161010.1 5.4 3.8 3.7
2016-Jun-24 15:00N 78°12' E 015°00'7 7.4 230 / 121009.8 2.2 5.5 3.5 4.6
2016-Jun-24 14:00N 78°12' E 015°36'0 0.0 280 / 61009.8 6.4 3.1 5.2
2016-Jun-24 13:00N 78°12' E 015°36'0 0.0 260 / 121009.5 6.9 1.7 5.0
2016-Jun-24 12:00N 78°12' E 015°36'0 0.0 270 / 121009.2 7.2 1.8 4.9
2016-Jun-24 11:00N 78°12' E 015°36'0 0.0 260 / 101009.2 6.8 1.5 5.0
2016-Jun-24 10:00N 78°12' E 015°36'0 0.0 240 / 101009.1 6.2 1.7 4.9
2016-Jun-24 09:00N 78°12' E 015°36'0 0.0 250 / 81008.9 6.3 2.1 5.0
2016-Jun-24 08:00N 78°12' E 015°36'0 0.0 270 / 61008.5 6.3 1.8 5.0
2016-Jun-24 07:00N 78°12' E 015°36'0 0.0 240 / 81008.3 6.3 1.1 4.9
2016-Jun-24 06:00N 78°12' E 015°36'0 0.0 260 / 61008.1 6.4 0.3 5.0
2016-Jun-24 05:00N 78°12' E 015°36'0 0.0 240 / 101008.0 6.2 0.7 4.9
2016-Jun-24 04:00N 78°12' E 015°36'0 0.0 190 / 81007.9 6.3-0.3 4.9
2016-Jun-24 03:00N 78°12' E 015°36'0 0.0 190 / 121007.9 6.1-0.1 4.9
2016-Jun-24 02:00N 78°12' E 015°36'0 0.0 180 / 61008.3 6.2 0.1 4.8
2016-Jun-24 01:00N 78°12' E 015°36'0 0.0 270 / 61008.3 6.1 0.8 4.9
2016-Jun-24 00:00N 78°12' E 015°36'0 0.0 230 / 101008.4 6.1 1.0 5.0
2016-Jun-23 23:00N 78°12' E 015°36'0 0.0 240 / 141008.2 6.1 1.1 5.1
2016-Jun-23 22:00N 78°12' E 015°36'0 0.0 230 / 61008.2 6.3 1.8 5.0
2016-Jun-23 21:00N 78°12' E 015°36'0 0.0 240 / 41008.3 6.2 0.7 5.0
2016-Jun-23 20:00N 78°12' E 015°36'0 0.0 010 / 41008.1 6.2 1.8 4.9
2016-Jun-23 19:00N 78°12' E 015°36'0 0.0 360 / 41007.9 5.4 1.6 4.8
2016-Jun-23 18:00N 78°12' E 015°36'0 0.0 330 / 41007.5 5.5 1.6 5.2
2016-Jun-23 17:00N 78°12' E 015°36'0 0.0 290 / 101007.6 5.1 1.6 4.9
2016-Jun-23 16:00N 78°12' E 015°36'0 0.0 300 / 101007.5 6.9 2.3 4.8
2016-Jun-23 15:00N 78°12' E 015°36'0 0.0 999 / 21007.4 5.7 1.4 5.0
2016-Jun-23 14:00N 78°12' E 015°36'0 0.0 280 / 61007.2 5.4 1.5 5.0
2016-Jun-23 13:00N 78°12' E 015°36'0 0.0 250 / 41007.4 5.4 1.2 5.0
2016-Jun-23 12:00N 78°12' E 015°36'0 0.0 200 / 101007.0 5.7 0.7 5.0
2016-Jun-23 11:00N 78°12' E 015°36'0 0.0 200 / 81006.6 6.1 0.2 4.9
2016-Jun-23 10:00N 78°12' E 015°36'0 0.0 170 / 101006.2 6.1 0.6 5.0
2016-Jun-23 09:00N 78°12' E 015°36'0 0.0 220 / 61005.9 6.5 0.3 5.0
2016-Jun-23 08:00N 78°12' E 015°36'0 0.0 220 / 81005.7 6.6 0.9 5.1
2016-Jun-23 07:00N 78°12' E 015°36'6 6.1 250 / 61005.0 6.6 0.8 5.0
2016-Jun-23 06:00N 78°18' E 015°30'1111.5 230 / 161005.1 5.4 0.5 5.1 2.7 4.6
2016-Jun-23 05:00N 78°12' E 014°42'1312.6 220 / 191005.2 5.0 2.4 3.9
2016-Jun-23 04:00N 78°06' E 013°48'9 8.7 200 / 231004.9 4.3 3.2 3.7
2016-Jun-23 03:00N 78°06' E 013°06'10 9.6 200 / 161005.0 4.6 2.3 5.0
2016-Jun-23 02:00N 78°00' E 012°30'8 7.8 190 / 141005.1 4.4 2.5 5.2
2016-Jun-23 01:00N 77°54' E 012°06'4 3.8 210 / 161005.0 4.3 2.2 4.0
2016-Jun-23 00:00N 77°54' E 011°48'8 7.8 210 / 191005.0 4.0 2.4 3.9
2016-Jun-22 23:00N 77°48' E 011°24'4 3.8 200 / 211005.0 4.6 1.7 4.7
2016-Jun-22 22:00N 77°48' E 011°06'7 7.1 200 / 191005.1 5.2 3.2 4.9
2016-Jun-22 21:00N 77°42' E 010°48'5 5.1 180 / 191005.3 5.8 4.3 6.2
2016-Jun-22 20:00N 77°42' E 010°24'1 1.3 180 / 191005.4 5.7 3.5 5.8
2016-Jun-22 19:00N 77°42' E 010°18'7 6.5 190 / 171006.0 5.7 4.5 6.2
2016-Jun-22 18:00N 77°36' E 010°06'0 0.0 180 / 191005.910.8 1.0 5.7 4.5 6.2
2016-Jun-22 17:00N 77°36' E 010°06'7 6.5 190 / 191006.2 5.6 4.4 6.1
2016-Jun-22 16:00N 77°42' E 010°18'0 0.0 190 / 171006.8 5.6 4.0 6.1
2016-Jun-22 15:00N 77°42' E 010°18'6 6.0 200 / 171007.0 5.4 0.5 5.6 3.9 6.1
2016-Jun-22 14:00N 77°36' E 010°18'4 3.9 200 / 161007.2 5.6 4.2 6.1
2016-Jun-22 13:00N 77°36' E 010°36'1313.1 210 / 161007.4 5.6 4.3 6.1
2016-Jun-22 12:00N 77°24' E 011°00'2211.2 210 / 121007.710.8 5.5 4.4 6.1
2016-Jun-22 10:00N 77°06' E 012°00'8 8.1 200 / 101008.0 5.7 4.6 6.6
2016-Jun-22 09:00N 77°00' E 012°24'1413.8 200 / 101008.4 5.4 5.7 4.7 6.6
2016-Jun-22 08:00N 76°48' E 012°54'1313.2 210 / 101008.8 5.8 4.4 6.2
2016-Jun-22 07:00N 76°36' E 013°18'9 9.2 220 / 81008.8 5.8 4.6 6.0
2016-Jun-22 06:00N 76°30' E 013°48'7 6.6 220 / 41008.910.8 5.8 4.6 6.2
2016-Jun-22 05:00N 76°24' E 014°00'0 0.0 250 / 41009.0 5.8 4.1 6.2
2016-Jun-22 04:00N 76°24' E 014°00'1 1.4 280 / 41009.0 5.8 3.8 6.1
2016-Jun-22 03:00N 76°24' E 013°54'1 1.4 280 / 81009.2 5.6 4.1 6.1
2016-Jun-22 02:00N 76°24' E 014°00'8 8.2 260 / 81009.2 5.6 4.1 6.2
2016-Jun-22 01:00N 76°30' E 014°24'1 1.4 280 / 101009.2 5.7 4.4 6.3
2016-Jun-22 00:00N 76°30' E 014°18'3 2.8 280 / 101009.5 5.7 4.7 6.1
2016-Jun-21 23:00N 76°30' E 014°06'6 6.0 270 / 121009.6 5.7 4.5 6.1
2016-Jun-21 22:00N 76°24' E 014°06'6 5.6 270 / 121009.7 5.9 5.0 6.2
2016-Jun-21 21:00N 76°24' E 013°42'3 2.8 270 / 141009.8 5.8 4.6 6.4
2016-Jun-21 20:00N 76°24' E 013°30'0 0.0 260 / 141009.9 5.6 4.6 6.2
2016-Jun-21 19:00N 76°24' E 013°30'4 4.2 260 / 161010.3 5.7 4.5 6.2
2016-Jun-21 18:00N 76°24' E 013°48'1 1.4 260 / 121010.410.8 5.7 4.5 6.2
2016-Jun-21 17:00N 76°24' E 013°54'0 0.0 280 / 101010.6 5.6 3.5 6.1
2016-Jun-21 16:00N 76°24' E 013°54'1 1.4 290 / 121010.9 5.5 3.1 6.0
2016-Jun-21 15:00N 76°24' E 014°00'1212.3 290 / 141010.8 5.4 0.5 5.3 3.0 6.1
2016-Jun-21 14:00N 76°12' E 014°12'7 6.7 290 / 141011.0 5.1 3.5 6.6
2016-Jun-21 13:00N 76°06' E 014°24'1312.8 260 / 171011.0 5.8 4.1 6.6
2016-Jun-21 12:00N 75°54' E 014°42'7 6.7 250 / 161011.510.8 0.5 5.8 3.8 6.7
2016-Jun-21 11:00N 75°48' E 014°54'1312.8 250 / 161011.9 5.5 3.7 6.0
2016-Jun-21 10:00N 75°36' E 015°12'7 6.7 250 / 121012.3 5.3 2.9 6.0
2016-Jun-21 09:00N 75°30' E 015°24'1212.4 290 / 101012.410.8 0.5 5.3 3.1 6.5
2016-Jun-21 08:00N 75°18' E 015°36'7 6.7 310 / 141012.4 5.3 2.4 6.0
2016-Jun-21 07:00N 75°12' E 015°48'1212.4 330 / 141012.4 5.4 2.3 5.7
2016-Jun-21 06:00N 75°00' E 016°00'6 6.2 330 / 121012.310.8 0.5 5.5 3.1 6.0
2016-Jun-21 05:00N 74°54' E 016°06'0 0.0 320 / 141012.1 5.8 3.5 6.3
2016-Jun-21 04:00N 74°54' E 016°06'6 6.0 320 / 101012.3 5.6 3.5 6.6
2016-Jun-21 03:00N 74°48' E 016°06'6 6.0 290 / 121012.5 5.1 2.5 6.9
2016-Jun-21 02:00N 74°42' E 016°06'8 7.6 270 / 141012.5 5.8 3.4 6.9
2016-Jun-21 01:00N 74°48' E 016°24'9 8.7 290 / 141012.1 5.8 3.5 6.8
2016-Jun-21 00:00N 74°54' E 016°48'2 1.6 280 / 101012.0 5.8 4.6 6.2
2016-Jun-20 23:00N 74°54' E 016°54'6 6.0 250 / 101012.1 6.2 5.6 6.0
2016-Jun-20 22:00N 74°48' E 016°54'0 0.0 240 / 141011.8 6.5 5.7 6.7
2016-Jun-20 21:00N 74°48' E 016°54'6 6.2 240 / 161011.9 6.6 5.4 6.7
2016-Jun-20 20:00N 74°42' E 016°48'9 8.7 240 / 161012.1 6.5 4.9 6.2
2016-Jun-20 19:00N 74°48' E 017°12'7 6.8 240 / 161011.8 6.1 4.3 6.2
2016-Jun-20 18:00N 74°54' E 017°24'0 0.0 250 / 171011.810.8 0.5 5.6 4.1 5.8
2016-Jun-20 17:00N 74°54' E 017°24'0 0.0 270 / 161011.8 5.9 2.5 5.8
2016-Jun-20 16:00N 74°54' E 017°24'0 0.0 270 / 171011.5 5.6 2.6 5.8
2016-Jun-20 15:00N 74°54' E 017°24'0 0.0 270 / 171011.510.8 0.5 5.8 1.9 5.8
2016-Jun-20 14:00N 74°54' E 017°24'0 0.0 270 / 171011.3 5.7 2.6 5.8
2016-Jun-20 13:00N 74°54' E 017°24'0 0.0 260 / 171011.1 5.8 2.1 5.8
2016-Jun-20 12:00N 74°54' E 017°24'0 0.0 260 / 171011.110.8 1.0 5.7 2.7 5.8
2016-Jun-20 11:00N 74°54' E 017°24'3 3.1 270 / 171010.9 5.6 3.5 5.4
2016-Jun-20 10:00N 74°54' E 017°36'0 0.0 280 / 211010.3 5.1 2.7 4.6
2016-Jun-20 09:00N 74°54' E 017°36'6 6.0 280 / 211009.810.8 1.0 5.4 3.2 5.8
2016-Jun-20 08:00N 74°48' E 017°36'0 0.0 280 / 231010.0 5.3 2.8 6.1
2016-Jun-20 07:00N 74°48' E 017°36'0 0.0 280 / 211009.7 5.5 3.3 6.1
2016-Jun-20 06:00N 74°48' E 017°36'6 6.2 270 / 211009.710.8 1.0 5.6 3.4 6.2
2016-Jun-20 05:00N 74°42' E 017°42'5 4.7 260 / 211009.7 5.1 2.7 6.2
2016-Jun-20 04:00N 74°42' E 018°00'7 6.8 270 / 191009.6 4.7 2.7 6.2
2016-Jun-20 03:00N 74°48' E 018°12'6 6.0 280 / 191009.6 4.5 2.6 5.8
2016-Jun-20 02:00N 74°54' E 018°12'2 1.6 290 / 191009.4 4.5 2.7 5.5
2016-Jun-20 01:00N 74°54' E 018°06'6 6.2 290 / 191009.1 4.6 2.3 4.7
2016-Jun-20 00:00N 75°00' E 018°00'0 0.0 280 / 171009.0 4.4 2.5 5.6
2016-Jun-19 23:00N 75°00' E 018°00'6 6.2 280 / 191009.1 4.7 2.2 4.8
2016-Jun-19 22:00N 74°54' E 018°06'6 6.2 270 / 191008.9 4.6 2.8 4.7
2016-Jun-19 21:00N 74°48' E 018°12'0 0.0 280 / 211009.4 4.7 2.1 5.6
2016-Jun-19 20:00N 74°48' E 018°12'0 0.0 280 / 211009.2 4.7 2.1 5.6
2016-Jun-19 19:00N 74°48' E 018°12'0 0.0 270 / 191009.7 4.4 2.9 5.8
2016-Jun-19 18:00N 74°48' E 018°12'8 7.9 280 / 171009.910.8 1.0 4.6 2.6 5.9
2016-Jun-19 17:00N 74°48' E 017°42'2 1.6 270 / 191010.0 4.9 2.1 6.2
2016-Jun-19 16:00N 74°48' E 017°36'0 0.0 290 / 161010.3 4.9 1.9 6.2
2016-Jun-19 15:00N 74°48' E 017°36'0 0.0 310 / 161010.410.8 1.0 5.1 2.0 6.2
2016-Jun-19 14:00N 74°48' E 017°36'2 1.6 300 / 171010.3 5.0 1.0 6.2
2016-Jun-19 13:00N 74°48' E 017°42'5 4.7 300 / 191010.3 5.1 1.3 6.3
2016-Jun-19 12:00N 74°48' E 017°24'8 7.9 300 / 171010.010.8 1.0 5.0 1.5 6.2
2016-Jun-19 11:00N 74°48' E 016°54'7 6.8 300 / 191010.2 5.4 1.4 6.4
2016-Jun-19 10:00N 74°54' E 016°42'9 9.4 300 / 171010.4 5.3 2.0 6.2
2016-Jun-19 09:00N 74°54' E 016°06'0 0.0 310 / 171010.410.8 0.5 5.3 2.3 6.0
2016-Jun-19 08:00N 74°54' E 016°06'0 0.0 320 / 161010.7 5.3 0.5 6.0
2016-Jun-19 07:00N 74°54' E 016°06'0 0.0 320 / 141010.8 5.1 2.2 6.0
2016-Jun-19 06:00N 74°54' E 016°06'0 0.0 290 / 161010.7 5.4 0.5 4.6 1.9 6.0
2016-Jun-19 05:00N 74°54' E 016°06'1212.1 320 / 141010.7 5.0-0.0 6.2
2016-Jun-19 04:00N 74°42' E 016°00'6711.1 320 / 141010.7 4.8 1.2 7.0
2016-Jun-18 22:00N 73°36' E 015°24'1212.5 320 / 161012.2 5.0 2.2 7.2
2016-Jun-18 21:00N 73°24' E 015°12'1212.0 340 / 161012.4 5.1 1.3 7.1
2016-Jun-18 20:00N 73°12' E 015°12'6 6.2 340 / 141013.0 5.2 1.5 7.5
2016-Jun-18 19:00N 73°06' E 015°06'1212.0 330 / 161013.0 4.7 2.3 7.5
2016-Jun-18 18:00N 72°54' E 015°06'1212.1 340 / 161013.110.8 1.0 5.0 1.5 7.6
2016-Jun-18 17:00N 72°42' E 015°00'1212.1 330 / 161013.1 5.2 1.4 7.7
2016-Jun-18 16:00N 72°30' E 014°54'1212.0 320 / 171013.2 5.3 0.8 7.7
2016-Jun-18 15:00N 72°18' E 014°54'1212.1 340 / 161013.410.8 1.0 5.1 2.8 7.5
2016-Jun-18 14:00N 72°06' E 014°48'6 6.0 350 / 171013.1 5.3 1.6 7.6
2016-Jun-18 13:00N 72°00' E 014°48'2 1.9 330 / 161013.2 5.2 1.7 7.8
2016-Jun-18 12:00N 72°00' E 014°42'8 8.2 330 / 171013.1 5.4 1.0 4.9 2.9 8.0
2016-Jun-18 11:00N 71°54' E 014°24'1313.3 340 / 161013.1 5.2 2.5 8.3
2016-Jun-18 10:00N 71°42' E 014°06'8 8.3 330 / 191013.0 5.3 3.0 8.1
2016-Jun-18 09:00N 71°36' E 013°48'1313.3 330 / 171013.2 5.4 1.0 5.1 2.9 8.2
2016-Jun-18 08:00N 71°24' E 013°30'8 8.3 330 / 211013.1 5.2 2.0 8.4
2016-Jun-18 07:00N 71°18' E 013°12'1313.3 350 / 191013.5 4.9 1.8 8.5
2016-Jun-18 06:00N 71°06' E 012°54'8 8.4 340 / 211013.6 5.4 1.0 5.2 2.7 8.1
2016-Jun-18 05:00N 71°00' E 012°36'8 8.4 360 / 211013.5 5.2 3.0 7.8
2016-Jun-18 04:00N 70°54' E 012°18'1313.4 010 / 231013.4 5.2 2.9 8.2
2016-Jun-18 03:00N 70°42' E 012°00'8 8.5 360 / 231013.5 5.2 2.9 7.8
2016-Jun-18 02:00N 70°36' E 011°42'1313.4 360 / 231013.9 5.2 2.5 7.6
2016-Jun-18 01:00N 70°24' E 011°24'9 8.5 010 / 211013.9 5.5 2.8 8.6
2016-Jun-18 00:00N 70°18' E 011°06'1313.5 020 / 231013.9 5.7 2.0 8.4
2016-Jun-17 23:00N 70°06' E 010°48'9 8.6 010 / 211013.9 6.0 2.2 8.6
2016-Jun-17 22:00N 70°00' E 010°30'1413.5 010 / 231014.2 5.9 2.3 8.9
2016-Jun-17 21:00N 69°48' E 010°12'9 8.6 010 / 211014.4 6.0 1.8 9.0
2016-Jun-17 20:00N 69°42' E 009°54'1312.7 010 / 211014.5 6.5 2.4 8.9
2016-Jun-17 19:00N 69°30' E 009°42'7 7.3 010 / 231014.2 6.5 2.1 8.9
2016-Jun-17 18:00N 69°24' E 009°30'1212.2 360 / 231014.010.8 1.5 6.5 2.2 9.1
2016-Jun-17 17:00N 69°12' E 009°24'1312.7 360 / 211014.2 6.7 1.6 8.8
2016-Jun-17 16:00N 69°00' E 009°12'7 7.4 010 / 231014.0 7.1 2.0 8.4
2016-Jun-17 15:00N 68°54' E 009°00'1212.2 010 / 211014.110.8 1.5 7.2 2.2 8.7
2016-Jun-17 14:00N 68°42' E 008°54'1312.8 020 / 231014.3 7.4 1.9 9.2
2016-Jun-17 13:00N 68°30' E 008°42'7 7.4 010 / 231014.3 7.4 1.3 9.3
2016-Jun-17 12:00N 68°24' E 008°30'1212.2 010 / 231014.210.8 1.5 7.3 1.2 8.8
2016-Jun-17 11:00N 68°12' E 008°24'1312.8 010 / 231013.8 7.3 2.3 8.4
2016-Jun-17 10:00N 68°00' E 008°12'6 6.4 030 / 211014.2 7.4 1.0 9.3
2016-Jun-17 09:00N 67°54' E 008°06'6 6.4 020 / 211014.210.8 1.5 7.4 1.5 9.6
2016-Jun-17 08:00N 67°48' E 008°00'1312.8 020 / 231013.7 7.6 1.6 9.4
2016-Jun-17 07:00N 67°36' E 007°48'1312.8 020 / 231013.8 7.5 2.0 9.0
2016-Jun-17 06:00N 67°24' E 007°36'6 6.4 020 / 231013.810.8 2.0 7.5 2.1 9.4
2016-Jun-17 05:00N 67°18' E 007°30'1312.9 020 / 251013.8 7.4 1.6 9.6
2016-Jun-17 04:00N 67°06' E 007°18'6 6.4 020 / 251013.8 7.4 2.1 9.3
2016-Jun-17 03:00N 67°00' E 007°12'1312.9 020 / 251013.4 7.7 2.110.0
2016-Jun-17 02:00N 66°48' E 007°00'4411.1 020 / 251013.4 7.9 2.7 9.7
2016-Jun-16 22:00N 66°06' E 006°24'6 6.5 020 / 251013.2 8.3 3.4 9.6
2016-Jun-16 21:00N 66°00' E 006°18'1313.0 030 / 271012.8 8.4 3.2 9.9
2016-Jun-16 20:00N 65°48' E 006°06'1212.3 030 / 271012.3 8.3 2.710.5
2016-Jun-16 19:00N 65°36' E 006°00'8 7.8 040 / 271012.3 8.5 3.710.5
2016-Jun-16 18:00N 65°30' E 005°48'1212.3 030 / 271012.010.8 2.0 8.6 3.510.4
2016-Jun-16 17:00N 65°18' E 005°42'1313.0 030 / 251011.8 8.9 3.710.5
2016-Jun-16 16:00N 65°06' E 005°30'7 6.5 030 / 251011.6 8.9 3.810.5
2016-Jun-16 15:00N 65°00' E 005°24'1212.3 040 / 251011.810.8 2.0 9.0 3.610.6
2016-Jun-16 14:00N 64°48' E 005°18'1313.0 030 / 251011.1 8.9 3.510.8
2016-Jun-16 13:00N 64°36' E 005°06'7 6.5 030 / 251010.8 8.9 3.710.9
2016-Jun-16 12:00N 64°30' E 005°00'1313.1 040 / 251010.710.8 2.0 9.1 4.210.6
2016-Jun-16 11:00N 64°18' E 004°48'1212.3 040 / 271010.1 9.3 4.610.7
2016-Jun-16 10:00N 64°06' E 004°42'8 8.0 040 / 271009.5 9.4 3.910.7
2016-Jun-16 09:00N 64°00' E 004°30'1212.3 040 / 251009.4 5.4 2.0 9.3 3.610.8
2016-Jun-16 08:00N 63°48' E 004°24'1212.3 040 / 251009.1 9.2 4.310.6
2016-Jun-16 07:00N 63°36' E 004°18'1313.1 030 / 271008.5 9.1 3.810.7
2016-Jun-16 06:00N 63°24' E 004°06'7 6.6 030 / 271007.9 5.4 2.0 8.9 4.310.5
2016-Jun-16 05:00N 63°18' E 004°00'1313.2 030 / 271007.9 8.8 3.610.8
2016-Jun-16 04:00N 63°06' E 003°48'1212.3 030 / 271007.5 9.0 4.810.9
2016-Jun-16 03:00N 62°54' E 003°42'1212.0 040 / 291007.3 8.9 4.510.9
2016-Jun-16 02:00N 62°42' E 003°42'1212.0 040 / 291006.7 9.0 5.1 9.6
2016-Jun-16 01:00N 62°30' E 003°42'6 6.0 040 / 311006.1 9.1 5.4 9.8
2016-Jun-16 00:00N 62°24' E 003°42'1212.3 040 / 331005.8 9.3 6.3 9.8
2016-Jun-15 23:00N 62°12' E 003°36'1212.0 040 / 351005.0 9.4 6.4 9.6
2016-Jun-15 22:00N 62°00' E 003°36'1212.0 040 / 351004.3 9.3 6.8 9.0
2016-Jun-15 21:00N 61°48' E 003°36'2 4.4 030 / 351003.4 9.5 6.4 9.7
2016-Jun-15 20:33N 61°47' E 003°33'5 8.6
2016-Jun-15 20:00N 61°42' E 003°30'613.7 030 / 331002.9 9.7 7.010.4
2016-Jun-15 19:33N 61°36' E 003°31'610.8
2016-Jun-15 19:00N 61°30' E 003°30'510.3 030 / 311002.3 9.7 6.910.2
2016-Jun-15 18:33N 61°25' E 003°30'713.3
2016-Jun-15 18:00N 61°18' E 003°30'3 7.2 030 / 251001.9 5.4 2.0 9.9 7.810.5
2016-Jun-15 17:33N 61°15' E 003°29'915.9
2016-Jun-15 17:00N 61°06' E 003°30'2 5.2 020 / 211001.9 10.3 8.511.3
2016-Jun-15 16:33N 61°04' E 003°26'5 8.4
2016-Jun-15 16:00N 61°00' E 003°24'613.5 020 / 191001.8 10.8 8.611.5
2016-Jun-15 15:33N 60°54' E 003°25'610.8
2016-Jun-15 15:00N 60°48' E 003°24'4 9.4 020 / 171001.610.8 0.511.2 9.511.9
2016-Jun-15 14:33N 60°44' E 003°24'814.1
2016-Jun-15 14:00N 60°36' E 003°24'3 6.4 010 / 141001.7 11.610.211.8
2016-Jun-15 13:33N 60°34' E 003°27'4 6.9
2016-Jun-15 13:00N 60°30' E 003°30'716.0 350 / 101001.7 12.010.912.4
2016-Jun-15 12:33N 60°23' E 003°30'5 8.8
2016-Jun-15 12:00N 60°18' E 003°30'511.6 010 / 81001.710.8 12.511.113.2
2016-Jun-15 11:32N 60°13' E 003°33'713.0
2016-Jun-15 11:00N 60°06' E 003°36'1212.0 020 / 81001.5 12.911.613.0
2016-Jun-15 10:00N 59°54' E 003°36'7 6.7 360 / 101001.3 13.211.813.7
2016-Jun-15 09:00N 59°48' E 003°42'1212.0 330 / 101001.010.8 14.411.514.0
2016-Jun-15 08:00N 59°36' E 003°42'1212.4 340 / 101001.0 14.012.113.3
2016-Jun-15 07:00N 59°24' E 003°48'1212.0 320 / 101000.7 13.912.113.1
2016-Jun-15 06:00N 59°12' E 003°48'   330 / 101000.310.8 14.212.414.6
Track history (hours):
 
Tides and Currents Weather Stations Pressure Air Temp Water Temp Dewpoint Dewpoint Depression Visibility Wind Speed Wind Dir Waves Ship Positions

Oceanographic research ship Polarstern (Germany)

Detailed information on ship capabilities available from University of Delaware's Ocean Information Center and ARCUS's ALIAS (Arctic Logistics Information and Support) project.

Last reported at 2016-Jun-25 06:00 UTC. Time now 2016-Jun-25 07:10 UTC.
Position N 78°36' E 005°06'.

Length 117.9 m; beam 25 m; draft 10.7 m.

MMSI: 211202460.

Wind from 200 at 8 knots

Barometer 1013.1 mb
Air temperature 3.0 ° C
Visibility: greater than 2.2 NM
Dewpoint 2.9 ° C
Water temperature 4.9 ° C

Date/timePositionNaut miles runAvg speedWind from/ knotsBaromVisibWave heightAir tempDewpointWater temp
2016-Jun-25 06:00N 78°36' E 005°06'0 0.0 200 / 81013.1 2.2 3.0 2.9 4.9
2016-Jun-25 05:00N 78°36' E 005°06'0 0.0 200 / 81012.7 2.8 2.6 4.9
2016-Jun-25 04:00N 78°36' E 005°06'1010.3 220 / 81012.4 3.3 2.7 4.9
2016-Jun-25 03:00N 78°30' E 005°48'10 9.6 220 / 101012.4 3.9 2.7 2.1
2016-Jun-25 02:00N 78°30' E 006°36'1010.3 220 / 81012.3 4.5 3.0 6.0
2016-Jun-25 01:00N 78°24' E 007°18'1111.4 240 / 101012.0 4.7 4.2 5.8
2016-Jun-25 00:00N 78°18' E 008°06'10 9.7 210 / 101011.8 4.9 4.8 5.6
2016-Jun-24 23:00N 78°18' E 008°54'1010.4 110 / 121011.9 4.9 4.0 6.1
2016-Jun-24 22:00N 78°12' E 009°36'1211.5 080 / 81011.8 4.2 3.3 6.0
2016-Jun-24 21:00N 78°06' E 010°24'1110.6 160 / 41011.6 5.3 4.1 6.3
2016-Jun-24 20:00N 78°00' E 011°06'1010.0 110 / 21011.5 5.0 3.6 5.0
2016-Jun-24 19:00N 78°00' E 011°54'1010.0 280 / 101010.9 5.0 4.1 4.9
2016-Jun-24 18:00N 78°00' E 012°42'1110.6 220 / 101010.4 0.5 4.9 4.9 5.2
2016-Jun-24 17:00N 78°06' E 013°24'1211.5 190 / 161010.1 4.2 4.0 3.5
2016-Jun-24 16:00N 78°12' E 014°12'10 9.8 240 / 161010.1 5.4 3.8 3.7
2016-Jun-24 15:00N 78°12' E 015°00'7 7.4 230 / 121009.8 2.2 5.5 3.5 4.6
2016-Jun-24 14:00N 78°12' E 015°36'0 0.0 280 / 61009.8 6.4 3.1 5.2
2016-Jun-24 13:00N 78°12' E 015°36'0 0.0 260 / 121009.5 6.9 1.7 5.0
2016-Jun-24 12:00N 78°12' E 015°36'0 0.0 270 / 121009.2 7.2 1.8 4.9
2016-Jun-24 11:00N 78°12' E 015°36'0 0.0 260 / 101009.2 6.8 1.5 5.0
2016-Jun-24 10:00N 78°12' E 015°36'0 0.0 240 / 101009.1 6.2 1.7 4.9
2016-Jun-24 09:00N 78°12' E 015°36'0 0.0 250 / 81008.9 6.3 2.1 5.0
2016-Jun-24 08:00N 78°12' E 015°36'0 0.0 270 / 61008.5 6.3 1.8 5.0
2016-Jun-24 07:00N 78°12' E 015°36'0 0.0 240 / 81008.3 6.3 1.1 4.9
2016-Jun-24 06:00N 78°12' E 015°36'0 0.0 260 / 61008.1 6.4 0.3 5.0
2016-Jun-24 05:00N 78°12' E 015°36'0 0.0 240 / 101008.0 6.2 0.7 4.9
2016-Jun-24 04:00N 78°12' E 015°36'0 0.0 190 / 81007.9 6.3-0.3 4.9
2016-Jun-24 03:00N 78°12' E 015°36'0 0.0 190 / 121007.9 6.1-0.1 4.9
2016-Jun-24 02:00N 78°12' E 015°36'0 0.0 180 / 61008.3 6.2 0.1 4.8
2016-Jun-24 01:00N 78°12' E 015°36'0 0.0 270 / 61008.3 6.1 0.8 4.9
2016-Jun-24 00:00N 78°12' E 015°36'0 0.0 230 / 101008.4 6.1 1.0 5.0
2016-Jun-23 23:00N 78°12' E 015°36'0 0.0 240 / 141008.2 6.1 1.1 5.1
2016-Jun-23 22:00N 78°12' E 015°36'0 0.0 230 / 61008.2 6.3 1.8 5.0
2016-Jun-23 21:00N 78°12' E 015°36'0 0.0 240 / 41008.3 6.2 0.7 5.0
2016-Jun-23 20:00N 78°12' E 015°36'0 0.0 010 / 41008.1 6.2 1.8 4.9
2016-Jun-23 19:00N 78°12' E 015°36'0 0.0 360 / 41007.9 5.4 1.6 4.8
2016-Jun-23 18:00N 78°12' E 015°36'0 0.0 330 / 41007.5 5.5 1.6 5.2
2016-Jun-23 17:00N 78°12' E 015°36'0 0.0 290 / 101007.6 5.1 1.6 4.9
2016-Jun-23 16:00N 78°12' E 015°36'0 0.0 300 / 101007.5 6.9 2.3 4.8
2016-Jun-23 15:00N 78°12' E 015°36'0 0.0 999 / 21007.4 5.7 1.4 5.0
2016-Jun-23 14:00N 78°12' E 015°36'0 0.0 280 / 61007.2 5.4 1.5 5.0
2016-Jun-23 13:00N 78°12' E 015°36'0 0.0 250 / 41007.4 5.4 1.2 5.0
2016-Jun-23 12:00N 78°12' E 015°36'0 0.0 200 / 101007.0 5.7 0.7 5.0
2016-Jun-23 11:00N 78°12' E 015°36'0 0.0 200 / 81006.6 6.1 0.2 4.9
2016-Jun-23 10:00N 78°12' E 015°36'0 0.0 170 / 101006.2 6.1 0.6 5.0
2016-Jun-23 09:00N 78°12' E 015°36'0 0.0 220 / 61005.9 6.5 0.3 5.0
2016-Jun-23 08:00N 78°12' E 015°36'0 0.0 220 / 81005.7 6.6 0.9 5.1
2016-Jun-23 07:00N 78°12' E 015°36'6 6.1 250 / 61005.0 6.6 0.8 5.0
2016-Jun-23 06:00N 78°18' E 015°30'1111.5 230 / 161005.1 5.4 0.5 5.1 2.7 4.6
2016-Jun-23 05:00N 78°12' E 014°42'1312.6 220 / 191005.2 5.0 2.4 3.9
2016-Jun-23 04:00N 78°06' E 013°48'9 8.7 200 / 231004.9 4.3 3.2 3.7
2016-Jun-23 03:00N 78°06' E 013°06'10 9.6 200 / 161005.0 4.6 2.3 5.0
2016-Jun-23 02:00N 78°00' E 012°30'8 7.8 190 / 141005.1 4.4 2.5 5.2
2016-Jun-23 01:00N 77°54' E 012°06'4 3.8 210 / 161005.0 4.3 2.2 4.0
2016-Jun-23 00:00N 77°54' E 011°48'8 7.8 210 / 191005.0 4.0 2.4 3.9
2016-Jun-22 23:00N 77°48' E 011°24'4 3.8 200 / 211005.0 4.6 1.7 4.7
2016-Jun-22 22:00N 77°48' E 011°06'7 7.1 200 / 191005.1 5.2 3.2 4.9
2016-Jun-22 21:00N 77°42' E 010°48'5 5.1 180 / 191005.3 5.8 4.3 6.2
2016-Jun-22 20:00N 77°42' E 010°24'1 1.3 180 / 191005.4 5.7 3.5 5.8
2016-Jun-22 19:00N 77°42' E 010°18'7 6.5 190 / 171006.0 5.7 4.5 6.2
2016-Jun-22 18:00N 77°36' E 010°06'0 0.0 180 / 191005.910.8 1.0 5.7 4.5 6.2
2016-Jun-22 17:00N 77°36' E 010°06'7 6.5 190 / 191006.2 5.6 4.4 6.1
2016-Jun-22 16:00N 77°42' E 010°18'0 0.0 190 / 171006.8 5.6 4.0 6.1
2016-Jun-22 15:00N 77°42' E 010°18'6 6.0 200 / 171007.0 5.4 0.5 5.6 3.9 6.1
2016-Jun-22 14:00N 77°36' E 010°18'4 3.9 200 / 161007.2 5.6 4.2 6.1
2016-Jun-22 13:00N 77°36' E 010°36'1313.1 210 / 161007.4 5.6 4.3 6.1
2016-Jun-22 12:00N 77°24' E 011°00'2211.2 210 / 121007.710.8 5.5 4.4 6.1
2016-Jun-22 10:00N 77°06' E 012°00'8 8.1 200 / 101008.0 5.7 4.6 6.6
2016-Jun-22 09:00N 77°00' E 012°24'1413.8 200 / 101008.4 5.4 5.7 4.7 6.6
2016-Jun-22 08:00N 76°48' E 012°54'1313.2 210 / 101008.8 5.8 4.4 6.2
2016-Jun-22 07:00N 76°36' E 013°18'9 9.2 220 / 81008.8 5.8 4.6 6.0
2016-Jun-22 06:00N 76°30' E 013°48'7 6.6 220 / 41008.910.8 5.8 4.6 6.2
2016-Jun-22 05:00N 76°24' E 014°00'0 0.0 250 / 41009.0 5.8 4.1 6.2
2016-Jun-22 04:00N 76°24' E 014°00'1 1.4 280 / 41009.0 5.8 3.8 6.1
2016-Jun-22 03:00N 76°24' E 013°54'1 1.4 280 / 81009.2 5.6 4.1 6.1
2016-Jun-22 02:00N 76°24' E 014°00'8 8.2 260 / 81009.2 5.6 4.1 6.2
2016-Jun-22 01:00N 76°30' E 014°24'1 1.4 280 / 101009.2 5.7 4.4 6.3
2016-Jun-22 00:00N 76°30' E 014°18'3 2.8 280 / 101009.5 5.7 4.7 6.1
2016-Jun-21 23:00N 76°30' E 014°06'6 6.0 270 / 121009.6 5.7 4.5 6.1
2016-Jun-21 22:00N 76°24' E 014°06'6 5.6 270 / 121009.7 5.9 5.0 6.2
2016-Jun-21 21:00N 76°24' E 013°42'3 2.8 270 / 141009.8 5.8 4.6 6.4
2016-Jun-21 20:00N 76°24' E 013°30'0 0.0 260 / 141009.9 5.6 4.6 6.2
2016-Jun-21 19:00N 76°24' E 013°30'4 4.2 260 / 161010.3 5.7 4.5 6.2
2016-Jun-21 18:00N 76°24' E 013°48'1 1.4 260 / 121010.410.8 5.7 4.5 6.2
2016-Jun-21 17:00N 76°24' E 013°54'0 0.0 280 / 101010.6 5.6 3.5 6.1
2016-Jun-21 16:00N 76°24' E 013°54'1 1.4 290 / 121010.9 5.5 3.1 6.0
2016-Jun-21 15:00N 76°24' E 014°00'1212.3 290 / 141010.8 5.4 0.5 5.3 3.0 6.1
2016-Jun-21 14:00N 76°12' E 014°12'7 6.7 290 / 141011.0 5.1 3.5 6.6
2016-Jun-21 13:00N 76°06' E 014°24'1312.8 260 / 171011.0 5.8 4.1 6.6
2016-Jun-21 12:00N 75°54' E 014°42'7 6.7 250 / 161011.510.8 0.5 5.8 3.8 6.7
2016-Jun-21 11:00N 75°48' E 014°54'1312.8 250 / 161011.9 5.5 3.7 6.0
2016-Jun-21 10:00N 75°36' E 015°12'7 6.7 250 / 121012.3 5.3 2.9 6.0
2016-Jun-21 09:00N 75°30' E 015°24'1212.4 290 / 101012.410.8 0.5 5.3 3.1 6.5
2016-Jun-21 08:00N 75°18' E 015°36'7 6.7 310 / 141012.4 5.3 2.4 6.0
2016-Jun-21 07:00N 75°12' E 015°48'1212.4 330 / 141012.4 5.4 2.3 5.7
2016-Jun-21 06:00N 75°00' E 016°00'6 6.2 330 / 121012.310.8 0.5 5.5 3.1 6.0
2016-Jun-21 05:00N 74°54' E 016°06'0 0.0 320 / 141012.1 5.8 3.5 6.3
2016-Jun-21 04:00N 74°54' E 016°06'6 6.0 320 / 101012.3 5.6 3.5 6.6
2016-Jun-21 03:00N 74°48' E 016°06'6 6.0 290 / 121012.5 5.1 2.5 6.9
2016-Jun-21 02:00N 74°42' E 016°06'8 7.6 270 / 141012.5 5.8 3.4 6.9
2016-Jun-21 01:00N 74°48' E 016°24'9 8.7 290 / 141012.1 5.8 3.5 6.8
2016-Jun-21 00:00N 74°54' E 016°48'2 1.6 280 / 101012.0 5.8 4.6 6.2
2016-Jun-20 23:00N 74°54' E 016°54'6 6.0 250 / 101012.1 6.2 5.6 6.0
2016-Jun-20 22:00N 74°48' E 016°54'0 0.0 240 / 141011.8 6.5 5.7 6.7
2016-Jun-20 21:00N 74°48' E 016°54'6 6.2 240 / 161011.9 6.6 5.4 6.7
2016-Jun-20 20:00N 74°42' E 016°48'9 8.7 240 / 161012.1 6.5 4.9 6.2
2016-Jun-20 19:00N 74°48' E 017°12'7 6.8 240 / 161011.8 6.1 4.3 6.2
2016-Jun-20 18:00N 74°54' E 017°24'0 0.0 250 / 171011.810.8 0.5 5.6 4.1 5.8
2016-Jun-20 17:00N 74°54' E 017°24'0 0.0 270 / 161011.8 5.9 2.5 5.8
2016-Jun-20 16:00N 74°54' E 017°24'0 0.0 270 / 171011.5 5.6 2.6 5.8
2016-Jun-20 15:00N 74°54' E 017°24'0 0.0 270 / 171011.510.8 0.5 5.8 1.9 5.8
2016-Jun-20 14:00N 74°54' E 017°24'0 0.0 270 / 171011.3 5.7 2.6 5.8
2016-Jun-20 13:00N 74°54' E 017°24'0 0.0 260 / 171011.1 5.8 2.1 5.8
2016-Jun-20 12:00N 74°54' E 017°24'0 0.0 260 / 171011.110.8 1.0 5.7 2.7 5.8
2016-Jun-20 11:00N 74°54' E 017°24'3 3.1 270 / 171010.9 5.6 3.5 5.4
2016-Jun-20 10:00N 74°54' E 017°36'0 0.0 280 / 211010.3 5.1 2.7 4.6
2016-Jun-20 09:00N 74°54' E 017°36'6 6.0 280 / 211009.810.8 1.0 5.4 3.2 5.8
2016-Jun-20 08:00N 74°48' E 017°36'0 0.0 280 / 231010.0 5.3 2.8 6.1
2016-Jun-20 07:00N 74°48' E 017°36'0 0.0 280 / 211009.7 5.5 3.3 6.1
2016-Jun-20 06:00N 74°48' E 017°36'6 6.2 270 / 211009.710.8 1.0 5.6 3.4 6.2
2016-Jun-20 05:00N 74°42' E 017°42'5 4.7 260 / 211009.7 5.1 2.7 6.2
2016-Jun-20 04:00N 74°42' E 018°00'7 6.8 270 / 191009.6 4.7 2.7 6.2
2016-Jun-20 03:00N 74°48' E 018°12'6 6.0 280 / 191009.6 4.5 2.6 5.8
2016-Jun-20 02:00N 74°54' E 018°12'2 1.6 290 / 191009.4 4.5 2.7 5.5
2016-Jun-20 01:00N 74°54' E 018°06'6 6.2 290 / 191009.1 4.6 2.3 4.7
2016-Jun-20 00:00N 75°00' E 018°00'0 0.0 280 / 171009.0 4.4 2.5 5.6
2016-Jun-19 23:00N 75°00' E 018°00'6 6.2 280 / 191009.1 4.7 2.2 4.8
2016-Jun-19 22:00N 74°54' E 018°06'6 6.2 270 / 191008.9 4.6 2.8 4.7
2016-Jun-19 21:00N 74°48' E 018°12'0 0.0 280 / 211009.4 4.7 2.1 5.6
2016-Jun-19 20:00N 74°48' E 018°12'0 0.0 280 / 211009.2 4.7 2.1 5.6
2016-Jun-19 19:00N 74°48' E 018°12'0 0.0 270 / 191009.7 4.4 2.9 5.8
2016-Jun-19 18:00N 74°48' E 018°12'8 7.9 280 / 171009.910.8 1.0 4.6 2.6 5.9
2016-Jun-19 17:00N 74°48' E 017°42'2 1.6 270 / 191010.0 4.9 2.1 6.2
2016-Jun-19 16:00N 74°48' E 017°36'0 0.0 290 / 161010.3 4.9 1.9 6.2
2016-Jun-19 15:00N 74°48' E 017°36'0 0.0 310 / 161010.410.8 1.0 5.1 2.0 6.2
2016-Jun-19 14:00N 74°48' E 017°36'2 1.6 300 / 171010.3 5.0 1.0 6.2
2016-Jun-19 13:00N 74°48' E 017°42'5 4.7 300 / 191010.3 5.1 1.3 6.3
2016-Jun-19 12:00N 74°48' E 017°24'8 7.9 300 / 171010.010.8 1.0 5.0 1.5 6.2
2016-Jun-19 11:00N 74°48' E 016°54'7 6.8 300 / 191010.2 5.4 1.4 6.4
2016-Jun-19 10:00N 74°54' E 016°42'9 9.4 300 / 171010.4 5.3 2.0 6.2
2016-Jun-19 09:00N 74°54' E 016°06'0 0.0 310 / 171010.410.8 0.5 5.3 2.3 6.0
2016-Jun-19 08:00N 74°54' E 016°06'0 0.0 320 / 161010.7 5.3 0.5 6.0
2016-Jun-19 07:00N 74°54' E 016°06'0 0.0 320 / 141010.8 5.1 2.2 6.0
2016-Jun-19 06:00N 74°54' E 016°06'0 0.0 290 / 161010.7 5.4 0.5 4.6 1.9 6.0
2016-Jun-19 05:00N 74°54' E 016°06'1212.1 320 / 141010.7 5.0-0.0 6.2
2016-Jun-19 04:00N 74°42' E 016°00'6711.1 320 / 141010.7 4.8 1.2 7.0
2016-Jun-18 22:00N 73°36' E 015°24'1212.5 320 / 161012.2 5.0 2.2 7.2
2016-Jun-18 21:00N 73°24' E 015°12'1212.0 340 / 161012.4 5.1 1.3 7.1
2016-Jun-18 20:00N 73°12' E 015°12'6 6.2 340 / 141013.0 5.2 1.5 7.5
2016-Jun-18 19:00N 73°06' E 015°06'1212.0 330 / 161013.0 4.7 2.3 7.5
2016-Jun-18 18:00N 72°54' E 015°06'1212.1 340 / 161013.110.8 1.0 5.0 1.5 7.6
2016-Jun-18 17:00N 72°42' E 015°00'1212.1 330 / 161013.1 5.2 1.4 7.7
2016-Jun-18 16:00N 72°30' E 014°54'1212.0 320 / 171013.2 5.3 0.8 7.7
2016-Jun-18 15:00N 72°18' E 014°54'1212.1 340 / 161013.410.8 1.0 5.1 2.8 7.5
2016-Jun-18 14:00N 72°06' E 014°48'6 6.0 350 / 171013.1 5.3 1.6 7.6
2016-Jun-18 13:00N 72°00' E 014°48'2 1.9 330 / 161013.2 5.2 1.7 7.8
2016-Jun-18 12:00N 72°00' E 014°42'8 8.2 330 / 171013.1 5.4 1.0 4.9 2.9 8.0
2016-Jun-18 11:00N 71°54' E 014°24'1313.3 340 / 161013.1 5.2 2.5 8.3
2016-Jun-18 10:00N 71°42' E 014°06'8 8.3 330 / 191013.0 5.3 3.0 8.1
2016-Jun-18 09:00N 71°36' E 013°48'1313.3 330 / 171013.2 5.4 1.0 5.1 2.9 8.2
2016-Jun-18 08:00N 71°24' E 013°30'8 8.3 330 / 211013.1 5.2 2.0 8.4
2016-Jun-18 07:00N 71°18' E 013°12'1313.3 350 / 191013.5 4.9 1.8 8.5
2016-Jun-18 06:00N 71°06' E 012°54'8 8.4 340 / 211013.6 5.4 1.0 5.2 2.7 8.1
2016-Jun-18 05:00N 71°00' E 012°36'8 8.4 360 / 211013.5 5.2 3.0 7.8
2016-Jun-18 04:00N 70°54' E 012°18'1313.4 010 / 231013.4 5.2 2.9 8.2
2016-Jun-18 03:00N 70°42' E 012°00'8 8.5 360 / 231013.5 5.2 2.9 7.8
2016-Jun-18 02:00N 70°36' E 011°42'1313.4 360 / 231013.9 5.2 2.5 7.6
2016-Jun-18 01:00N 70°24' E 011°24'9 8.5 010 / 211013.9 5.5 2.8 8.6
2016-Jun-18 00:00N 70°18' E 011°06'1313.5 020 / 231013.9 5.7 2.0 8.4
2016-Jun-17 23:00N 70°06' E 010°48'9 8.6 010 / 211013.9 6.0 2.2 8.6
2016-Jun-17 22:00N 70°00' E 010°30'1413.5 010 / 231014.2 5.9 2.3 8.9
2016-Jun-17 21:00N 69°48' E 010°12'9 8.6 010 / 211014.4 6.0 1.8 9.0
2016-Jun-17 20:00N 69°42' E 009°54'1312.7 010 / 211014.5 6.5 2.4 8.9
2016-Jun-17 19:00N 69°30' E 009°42'7 7.3 010 / 231014.2 6.5 2.1 8.9
2016-Jun-17 18:00N 69°24' E 009°30'1212.2 360 / 231014.010.8 1.5 6.5 2.2 9.1
2016-Jun-17 17:00N 69°12' E 009°24'1312.7 360 / 211014.2 6.7 1.6 8.8
2016-Jun-17 16:00N 69°00' E 009°12'7 7.4 010 / 231014.0 7.1 2.0 8.4
2016-Jun-17 15:00N 68°54' E 009°00'1212.2 010 / 211014.110.8 1.5 7.2 2.2 8.7
2016-Jun-17 14:00N 68°42' E 008°54'1312.8 020 / 231014.3 7.4 1.9 9.2
2016-Jun-17 13:00N 68°30' E 008°42'7 7.4 010 / 231014.3 7.4 1.3 9.3
2016-Jun-17 12:00N 68°24' E 008°30'1212.2 010 / 231014.210.8 1.5 7.3 1.2 8.8
2016-Jun-17 11:00N 68°12' E 008°24'1312.8 010 / 231013.8 7.3 2.3 8.4
2016-Jun-17 10:00N 68°00' E 008°12'6 6.4 030 / 211014.2 7.4 1.0 9.3
2016-Jun-17 09:00N 67°54' E 008°06'6 6.4 020 / 211014.210.8 1.5 7.4 1.5 9.6
2016-Jun-17 08:00N 67°48' E 008°00'1312.8 020 / 231013.7 7.6 1.6 9.4
2016-Jun-17 07:00N 67°36' E 007°48'1312.8 020 / 231013.8 7.5 2.0 9.0
2016-Jun-17 06:00N 67°24' E 007°36'6 6.4 020 / 231013.810.8 2.0 7.5 2.1 9.4
2016-Jun-17 05:00N 67°18' E 007°30'1312.9 020 / 251013.8 7.4 1.6 9.6
2016-Jun-17 04:00N 67°06' E 007°18'6 6.4 020 / 251013.8 7.4 2.1 9.3
2016-Jun-17 03:00N 67°00' E 007°12'1312.9 020 / 251013.4 7.7 2.110.0
2016-Jun-17 02:00N 66°48' E 007°00'4411.1 020 / 251013.4 7.9 2.7 9.7
2016-Jun-16 22:00N 66°06' E 006°24'6 6.5 020 / 251013.2 8.3 3.4 9.6
2016-Jun-16 21:00N 66°00' E 006°18'1313.0 030 / 271012.8 8.4 3.2 9.9
2016-Jun-16 20:00N 65°48' E 006°06'1212.3 030 / 271012.3 8.3 2.710.5
2016-Jun-16 19:00N 65°36' E 006°00'8 7.8 040 / 271012.3 8.5 3.710.5
2016-Jun-16 18:00N 65°30' E 005°48'1212.3 030 / 271012.010.8 2.0 8.6 3.510.4
2016-Jun-16 17:00N 65°18' E 005°42'1313.0 030 / 251011.8 8.9 3.710.5
2016-Jun-16 16:00N 65°06' E 005°30'7 6.5 030 / 251011.6 8.9 3.810.5
2016-Jun-16 15:00N 65°00' E 005°24'1212.3 040 / 251011.810.8 2.0 9.0 3.610.6
2016-Jun-16 14:00N 64°48' E 005°18'1313.0 030 / 251011.1 8.9 3.510.8
2016-Jun-16 13:00N 64°36' E 005°06'7 6.5 030 / 251010.8 8.9 3.710.9
2016-Jun-16 12:00N 64°30' E 005°00'1313.1 040 / 251010.710.8 2.0 9.1 4.210.6
2016-Jun-16 11:00N 64°18' E 004°48'1212.3 040 / 271010.1 9.3 4.610.7
2016-Jun-16 10:00N 64°06' E 004°42'8 8.0 040 / 271009.5 9.4 3.910.7
2016-Jun-16 09:00N 64°00' E 004°30'1212.3 040 / 251009.4 5.4 2.0 9.3 3.610.8
2016-Jun-16 08:00N 63°48' E 004°24'1212.3 040 / 251009.1 9.2 4.310.6
2016-Jun-16 07:00N 63°36' E 004°18'1313.1 030 / 271008.5 9.1 3.810.7
2016-Jun-16 06:00N 63°24' E 004°06'7 6.6 030 / 271007.9 5.4 2.0 8.9 4.310.5
2016-Jun-16 05:00N 63°18' E 004°00'1313.2 030 / 271007.9 8.8 3.610.8
2016-Jun-16 04:00N 63°06' E 003°48'1212.3 030 / 271007.5 9.0 4.810.9
2016-Jun-16 03:00N 62°54' E 003°42'1212.0 040 / 291007.3 8.9 4.510.9
2016-Jun-16 02:00N 62°42' E 003°42'1212.0 040 / 291006.7 9.0 5.1 9.6
2016-Jun-16 01:00N 62°30' E 003°42'6 6.0 040 / 311006.1 9.1 5.4 9.8
2016-Jun-16 00:00N 62°24' E 003°42'1212.3 040 / 331005.8 9.3 6.3 9.8
2016-Jun-15 23:00N 62°12' E 003°36'1212.0 040 / 351005.0 9.4 6.4 9.6
2016-Jun-15 22:00N 62°00' E 003°36'1212.0 040 / 351004.3 9.3 6.8 9.0
2016-Jun-15 21:00N 61°48' E 003°36'2 4.4 030 / 351003.4 9.5 6.4 9.7
2016-Jun-15 20:33N 61°47' E 003°33'5 8.6
2016-Jun-15 20:00N 61°42' E 003°30'613.7 030 / 331002.9 9.7 7.010.4
2016-Jun-15 19:33N 61°36' E 003°31'610.8
2016-Jun-15 19:00N 61°30' E 003°30'510.3 030 / 311002.3 9.7 6.910.2
2016-Jun-15 18:33N 61°25' E 003°30'713.3
2016-Jun-15 18:00N 61°18' E 003°30'3 7.2 030 / 251001.9 5.4 2.0 9.9 7.810.5
2016-Jun-15 17:33N 61°15' E 003°29'915.9
2016-Jun-15 17:00N 61°06' E 003°30'2 5.2 020 / 211001.9 10.3 8.511.3
2016-Jun-15 16:33N 61°04' E 003°26'5 8.4
2016-Jun-15 16:00N 61°00' E 003°24'613.5 020 / 191001.8 10.8 8.611.5
2016-Jun-15 15:33N 60°54' E 003°25'610.8
2016-Jun-15 15:00N 60°48' E 003°24'4 9.4 020 / 171001.610.8 0.511.2 9.511.9
2016-Jun-15 14:33N 60°44' E 003°24'814.1
2016-Jun-15 14:00N 60°36' E 003°24'3 6.4 010 / 141001.7 11.610.211.8
2016-Jun-15 13:33N 60°34' E 003°27'4 6.9
2016-Jun-15 13:00N 60°30' E 003°30'716.0 350 / 101001.7 12.010.912.4
2016-Jun-15 12:33N 60°23' E 003°30'5 8.8
2016-Jun-15 12:00N 60°18' E 003°30'511.6 010 / 81001.710.8 12.511.113.2
2016-Jun-15 11:32N 60°13' E 003°33'713.0
2016-Jun-15 11:00N 60°06' E 003°36'1212.0 020 / 81001.5 12.911.613.0
2016-Jun-15 10:00N 59°54' E 003°36'7 6.7 360 / 101001.3 13.211.813.7
2016-Jun-15 09:00N 59°48' E 003°42'1212.0 330 / 101001.010.8 14.411.514.0
2016-Jun-15 08:00N 59°36' E 003°42'1212.4 340 / 101001.0 14.012.113.3
2016-Jun-15 07:00N 59°24' E 003°48'1212.0 320 / 101000.7 13.912.113.1
2016-Jun-15 06:00N 59°12' E 003°48'   330 / 101000.310.8 14.212.414.6

Dump ship's entire track history